Terminal Aerodrome Forecast
Issued by NWS Bismarck, ND

Home | Current Version | Previous Version | Graphics & Text | Print | Product List | Glossary On
Versions: 1 2 3 4 5 6 7 8 9 10 11 12 13 14 15 16 17 18 19 20 21 22 23 24 25
246
FTUS43 KBIS 222215 AAC
TAFBIS
TAF AMD
KBIS 222215Z 2222/2318 14014KT P6SM VCTS SCT030 BKN080CB BKN150
      TEMPO 2300/2303 4SM TSGR OVC040CB
     FM230300 10015G21KT P6SM SHRA VCTS BKN090CB
     FM231600 20010KT P6SM SHRA VCTS BKN070CB=

USA.gov is the U.S. government's official web portal to all federal, state and local government web resources and services.